createdAt,value
2022-10-20T00:01:51.765Z,12.10
2022-10-20T00:04:18.443Z,12.10
2022-10-20T00:06:45.119Z,12.20
2022-10-20T00:09:12.065Z,12.20
2022-10-20T00:11:38.718Z,12.10
2022-10-20T00:14:05.831Z,12.10
2022-10-20T00:16:36.396Z,12.00
2022-10-20T00:19:03.942Z,11.90
2022-10-20T00:21:31.794Z,11.80
2022-10-20T00:24:01.898Z,11.70
2022-10-20T00:26:29.602Z,11.70
2022-10-20T00:28:56.891Z,11.70
2022-10-20T00:31:24.311Z,11.60
2022-10-20T00:33:50.987Z,11.60
2022-10-20T00:36:20.040Z,11.70
2022-10-20T00:38:46.718Z,11.70
2022-10-20T00:41:16.098Z,11.70
2022-10-20T00:43:50.897Z,11.70
2022-10-20T00:46:21.453Z,11.60
2022-10-20T00:48:58.580Z,11.70
2022-10-20T00:51:29.603Z,11.70
2022-10-20T00:54:06.646Z,11.70
2022-10-20T00:56:34.038Z,11.70
2022-10-20T00:59:03.006Z,11.70
2022-10-20T01:01:29.850Z,11.70
2022-10-20T01:03:57.083Z,11.60
2022-10-20T01:06:23.726Z,11.60
2022-10-20T01:08:52.570Z,11.60
2022-10-20T01:11:32.078Z,11.50
2022-10-20T01:14:43.467Z,11.50
2022-10-20T01:17:26.556Z,11.60
2022-10-20T01:20:01.877Z,11.70
2022-10-20T01:22:50.049Z,11.80
2022-10-20T01:25:18.105Z,11.80
2022-10-20T01:27:54.227Z,11.80
2022-10-20T01:30:22.831Z,11.70
2022-10-20T01:32:53.747Z,11.80
2022-10-20T01:35:47.017Z,11.80
2022-10-20T01:38:22.178Z,11.70
2022-10-20T01:41:00.259Z,11.80
2022-10-20T01:43:31.153Z,11.90
2022-10-20T01:45:59.871Z,12.00
2022-10-20T01:48:32.206Z,12.00
2022-10-20T01:51:00.242Z,12.00
2022-10-20T01:53:27.106Z,12.10
2022-10-20T01:55:56.362Z,12.10
2022-10-20T01:58:29.004Z,12.10
2022-10-20T02:01:02.754Z,12.10
2022-10-20T02:03:53.121Z,12.10
2022-10-20T02:06:24.917Z,12.20
2022-10-20T02:08:56.600Z,12.10
2022-10-20T02:11:28.526Z,12.00
2022-10-20T02:13:57.421Z,12.00
2022-10-20T02:16:29.537Z,12.00
2022-10-20T02:18:57.026Z,12.10
2022-10-20T02:21:23.967Z,12.20
2022-10-20T02:23:52.402Z,12.20
2022-10-20T02:26:23.406Z,12.10
2022-10-20T02:28:55.734Z,12.20
2022-10-20T02:31:22.870Z,12.20
2022-10-20T02:33:50.057Z,12.10
2022-10-20T02:36:19.403Z,12.10
2022-10-20T02:38:46.565Z,12.20
2022-10-20T02:41:13.414Z,12.20
2022-10-20T02:43:40.023Z,12.20
2022-10-20T02:46:06.738Z,12.10
2022-10-20T02:48:33.365Z,12.20
2022-10-20T02:50:59.978Z,12.30
2022-10-20T02:53:26.525Z,12.30
2022-10-20T02:55:53.085Z,12.30
2022-10-20T02:58:19.883Z,12.40
2022-10-20T03:00:46.486Z,12.40
2022-10-20T03:03:13.009Z,12.40
2022-10-20T03:05:41.800Z,12.40
2022-10-20T03:08:08.510Z,12.20
2022-10-20T03:10:35.323Z,12.20
2022-10-20T03:13:01.909Z,12.10
2022-10-20T03:15:28.450Z,12.10
2022-10-20T03:17:54.999Z,12.10
2022-10-20T03:20:21.582Z,12.10
2022-10-20T03:22:48.114Z,12.10
2022-10-20T03:25:14.957Z,12.20
2022-10-20T03:27:41.532Z,12.30
2022-10-20T03:30:08.526Z,12.20
2022-10-20T03:32:35.317Z,12.30
2022-10-20T03:35:02.054Z,12.20
2022-10-20T03:37:28.623Z,12.10
2022-10-20T03:39:55.156Z,12.10
2022-10-20T03:42:21.790Z,11.90
2022-10-20T03:44:48.385Z,11.80
2022-10-20T03:47:14.996Z,11.80
2022-10-20T03:49:41.634Z,11.70
2022-10-20T03:52:08.244Z,11.70
2022-10-20T03:54:36.677Z,11.70
2022-10-20T03:57:06.905Z,11.80
2022-10-20T03:59:34.660Z,11.70
2022-10-20T04:02:01.412Z,11.70
2022-10-20T04:04:28.188Z,11.70
2022-10-20T04:06:54.768Z,11.60
2022-10-20T04:09:21.396Z,11.60
2022-10-20T04:11:48.072Z,11.60
2022-10-20T04:14:14.646Z,11.60
2022-10-20T04:16:42.020Z,11.60
2022-10-20T04:19:08.582Z,11.50
2022-10-20T04:21:35.116Z,11.50
2022-10-20T04:24:01.803Z,11.60
2022-10-20T04:26:28.329Z,11.50
2022-10-20T04:28:56.942Z,11.50
2022-10-20T04:31:23.522Z,11.50
2022-10-20T04:33:50.055Z,11.50
2022-10-20T04:36:16.673Z,11.50
2022-10-20T04:38:43.242Z,11.50
2022-10-20T04:41:10.493Z,11.50
2022-10-20T04:43:37.098Z,11.50
2022-10-20T04:46:08.318Z,11.50
2022-10-20T04:48:36.195Z,11.50
2022-10-20T04:51:07.255Z,11.50
2022-10-20T04:53:34.411Z,11.60
2022-10-20T04:56:01.774Z,11.50
2022-10-20T04:58:28.689Z,11.50
2022-10-20T05:01:01.215Z,11.50
2022-10-20T05:03:27.799Z,11.50
2022-10-20T05:05:54.349Z,11.40
2022-10-20T05:08:20.885Z,11.40
2022-10-20T05:10:47.457Z,11.40
2022-10-20T05:13:14.035Z,11.40
2022-10-20T05:15:40.631Z,11.40
2022-10-20T05:18:07.348Z,11.40
2022-10-20T05:20:40.962Z,11.40
2022-10-20T05:23:07.943Z,11.40
2022-10-20T05:25:37.280Z,11.40
2022-10-20T05:28:05.198Z,11.40
2022-10-20T05:30:33.789Z,11.50
2022-10-20T05:33:00.338Z,11.50
2022-10-20T05:35:28.456Z,11.60
2022-10-20T05:37:55.366Z,11.60
2022-10-20T05:40:22.370Z,11.70
2022-10-20T05:42:49.078Z,11.70
2022-10-20T05:45:15.966Z,11.70
2022-10-20T05:47:45.321Z,11.70
2022-10-20T05:50:11.965Z,11.80
2022-10-20T05:52:38.831Z,11.70
2022-10-20T05:55:06.208Z,11.80
2022-10-20T05:57:32.736Z,11.90
2022-10-20T05:59:59.270Z,11.90
2022-10-20T06:02:25.825Z,11.90
2022-10-20T06:04:52.348Z,12.10
2022-10-20T06:07:18.887Z,12.00
2022-10-20T06:09:47.475Z,12.00
2022-10-20T06:12:14.044Z,12.10
2022-10-20T06:14:40.638Z,12.10
2022-10-20T06:17:07.207Z,12.10
2022-10-20T06:19:33.721Z,12.10
2022-10-20T06:22:03.957Z,12.10
2022-10-20T06:24:33.613Z,12.10
2022-10-20T06:27:00.156Z,12.20
2022-10-20T06:29:26.701Z,12.10
2022-10-20T06:31:55.098Z,12.10
2022-10-20T06:34:23.795Z,12.10
2022-10-20T06:36:50.962Z,12.20
2022-10-20T06:39:22.923Z,12.20
2022-10-20T06:41:51.716Z,12.20
2022-10-20T06:44:19.778Z,12.20
2022-10-20T06:46:46.355Z,12.10
2022-10-20T06:49:14.181Z,12.20
2022-10-20T06:51:41.358Z,12.20
2022-10-20T06:54:07.975Z,12.30
2022-10-20T06:56:36.114Z,12.30
2022-10-20T06:59:03.710Z,12.50
2022-10-20T07:01:33.183Z,12.50
2022-10-20T07:04:02.102Z,12.60
2022-10-20T07:06:33.274Z,12.70
2022-10-20T07:09:00.482Z,12.70
2022-10-20T07:11:29.183Z,12.70
2022-10-20T07:13:58.071Z,12.70
2022-10-20T07:16:26.806Z,12.70
2022-10-20T07:18:53.650Z,12.70
2022-10-20T07:21:22.814Z,12.90
2022-10-20T07:23:50.365Z,12.90
2022-10-20T07:26:19.713Z,12.80
2022-10-20T07:28:55.517Z,13.00
2022-10-20T07:31:46.578Z,13.20
2022-10-20T07:34:31.523Z,13.30
2022-10-20T07:36:58.212Z,13.40
2022-10-20T07:39:25.753Z,13.40
2022-10-20T07:41:52.700Z,13.50
2022-10-20T07:44:19.550Z,13.60
2022-10-20T07:46:46.493Z,13.50
2022-10-20T07:51:59.790Z,13.80
2022-10-20T07:54:26.356Z,13.90
2022-10-20T07:56:53.292Z,13.90
2022-10-20T07:59:19.852Z,13.90
2022-10-20T08:01:46.768Z,14.10
2022-10-20T08:04:13.409Z,14.10
2022-10-20T08:06:39.950Z,14.00
2022-10-20T08:09:07.312Z,14.30
2022-10-20T08:11:34.270Z,14.90
2022-10-20T08:14:00.863Z,15.30
2022-10-20T08:16:28.708Z,15.20
2022-10-20T08:19:05.599Z,14.80
2022-10-20T08:21:32.390Z,14.70
2022-10-20T08:23:59.079Z,14.80
2022-10-20T08:26:26.732Z,14.60
2022-10-20T08:28:54.745Z,14.80
2022-10-20T08:31:22.133Z,14.80
2022-10-20T08:33:52.677Z,14.90
2022-10-20T08:36:20.561Z,14.70
2022-10-20T08:38:47.493Z,14.70
2022-10-20T08:41:21.356Z,14.60
2022-10-20T08:43:50.858Z,14.70
2022-10-20T08:46:22.915Z,14.70
2022-10-20T08:48:50.165Z,14.70
2022-10-20T08:51:31.323Z,14.70
2022-10-20T08:53:59.877Z,14.50
2022-10-20T08:56:30.095Z,14.60
2022-10-20T08:58:57.068Z,14.50
2022-10-20T09:01:26.651Z,14.40
2022-10-20T09:03:59.579Z,14.60
2022-10-20T09:06:26.377Z,14.50
2022-10-20T09:08:54.539Z,14.60
2022-10-20T09:11:34.534Z,14.60
2022-10-20T09:14:01.111Z,14.80
2022-10-20T09:16:42.248Z,14.80
2022-10-20T09:19:23.228Z,14.60
2022-10-20T09:21:53.150Z,14.50
2022-10-20T09:24:22.299Z,14.20
2022-10-20T09:26:59.665Z,14.20
2022-10-20T09:29:38.641Z,14.10
2022-10-20T09:32:51.879Z,14.00
2022-10-20T09:35:31.750Z,13.80
2022-10-20T09:38:24.834Z,13.80
2022-10-20T09:41:14.840Z,13.90
2022-10-20T09:44:07.766Z,13.80
2022-10-20T09:46:50.530Z,14.00
2022-10-20T09:49:31.153Z,14.10
2022-10-20T09:51:59.699Z,14.20
2022-10-20T09:54:27.938Z,14.30
2022-10-20T09:57:05.248Z,14.30
2022-10-20T09:59:38.268Z,14.40
2022-10-20T10:02:27.229Z,14.50
2022-10-20T10:05:05.274Z,14.80
2022-10-20T10:07:32.258Z,14.90
2022-10-20T10:10:05.701Z,14.90
2022-10-20T10:12:35.975Z,14.80
2022-10-20T10:15:23.170Z,14.80
2022-10-20T10:17:50.751Z,14.90
2022-10-20T10:20:17.251Z,14.90
2022-10-20T10:22:44.477Z,15.00
2022-10-20T10:25:22.082Z,14.80
2022-10-20T10:28:24.218Z,14.80
2022-10-20T10:31:07.011Z,14.60
2022-10-20T10:33:33.674Z,14.40
2022-10-20T10:36:05.905Z,14.40
2022-10-20T10:38:32.454Z,14.40
2022-10-20T10:41:35.558Z,14.40
2022-10-20T10:44:14.124Z,14.60
2022-10-20T10:49:33.152Z,14.30
2022-10-20T10:52:15.973Z,14.30
2022-10-20T10:54:55.369Z,14.20
2022-10-20T10:57:43.944Z,14.10
2022-10-20T11:00:21.879Z,14.10
2022-10-20T11:02:48.364Z,14.00
2022-10-20T11:05:26.802Z,14.00
2022-10-20T11:08:08.382Z,13.90
2022-10-20T11:11:01.209Z,13.90
2022-10-20T11:13:30.718Z,13.80
2022-10-20T11:16:05.604Z,13.80
2022-10-20T11:18:54.418Z,13.80
2022-10-20T11:21:33.939Z,13.70
2022-10-20T11:24:24.670Z,13.60
2022-10-20T11:26:56.518Z,13.50
2022-10-20T11:29:37.873Z,13.50
2022-10-20T11:32:15.845Z,13.50
2022-10-20T11:35:04.092Z,13.50
2022-10-20T11:37:37.905Z,13.50
2022-10-20T11:40:10.551Z,13.50
2022-10-20T11:43:08.706Z,13.50
2022-10-20T11:45:56.088Z,13.40
2022-10-20T11:48:31.839Z,13.40
2022-10-20T11:51:20.306Z,13.50
2022-10-20T11:54:01.310Z,13.70
2022-10-20T11:57:05.425Z,13.90
2022-10-20T11:59:54.118Z,13.80
2022-10-20T12:02:48.336Z,14.10
2022-10-20T12:05:43.058Z,14.20
2022-10-20T12:08:30.214Z,14.30
2022-10-20T12:11:32.388Z,14.70
2022-10-20T12:14:08.085Z,15.10
2022-10-20T12:17:05.922Z,15.70
2022-10-20T12:19:34.513Z,16.00
2022-10-20T12:22:14.671Z,15.80
2022-10-20T12:24:54.602Z,16.10
2022-10-20T12:27:27.615Z,16.30
2022-10-20T12:30:23.814Z,16.50
2022-10-20T12:33:15.241Z,16.60
2022-10-20T12:36:18.699Z,16.50
2022-10-20T12:38:52.896Z,16.50
2022-10-20T12:41:29.006Z,16.40
2022-10-20T12:44:01.778Z,16.40
2022-10-20T12:46:31.420Z,16.20
2022-10-20T12:49:10.978Z,16.30
2022-10-20T12:51:53.578Z,16.40
2022-10-20T12:54:20.130Z,16.20
2022-10-20T12:56:47.103Z,16.40
2022-10-20T12:59:28.696Z,16.50
2022-10-20T13:02:10.583Z,16.60
2022-10-20T13:05:09.710Z,16.50
2022-10-20T13:07:48.200Z,16.80
2022-10-20T13:10:35.387Z,16.70
2022-10-20T13:13:01.873Z,16.60
2022-10-20T13:15:43.668Z,16.60
2022-10-20T13:18:13.206Z,16.70
2022-10-20T13:21:07.702Z,16.90
2022-10-20T13:23:39.835Z,18.20
2022-10-20T13:26:26.606Z,19.50
2022-10-20T13:28:59.923Z,21.10
2022-10-20T13:31:39.653Z,21.70
2022-10-20T13:34:24.856Z,22.80
2022-10-20T13:37:21.672Z,23.10
2022-10-20T13:40:38.267Z,22.90
2022-10-20T13:43:16.593Z,23.50
2022-10-20T13:45:49.113Z,24.10
2022-10-20T13:48:40.246Z,24.20
2022-10-20T13:51:23.905Z,22.90
2022-10-20T13:53:56.050Z,23.10
2022-10-20T13:56:37.638Z,24.10
2022-10-20T13:59:26.324Z,24.90
2022-10-20T14:02:01.671Z,24.70
2022-10-20T14:04:32.034Z,24.60
2022-10-20T14:07:16.428Z,25.20
2022-10-20T14:09:46.647Z,25.50
2022-10-20T14:12:26.299Z,24.80
2022-10-20T14:15:00.750Z,24.90
2022-10-20T14:17:28.558Z,25.00
2022-10-20T14:20:20.898Z,24.60
2022-10-20T14:22:47.970Z,24.70
2022-10-20T14:25:15.277Z,24.50
2022-10-20T14:27:42.691Z,24.70
2022-10-20T14:30:16.554Z,24.40
2022-10-20T14:32:45.241Z,24.60
2022-10-20T14:35:18.786Z,24.60
2022-10-20T14:37:52.895Z,24.10
2022-10-20T14:40:23.443Z,24.40
2022-10-20T14:42:50.678Z,24.70
2022-10-20T14:45:23.849Z,24.50
2022-10-20T14:47:52.238Z,24.50
2022-10-20T14:50:33.654Z,24.10
2022-10-20T14:53:22.188Z,24.00
2022-10-20T14:55:48.796Z,23.90
2022-10-20T14:58:37.411Z,24.40
2022-10-20T15:01:21.119Z,24.20
2022-10-20T15:04:02.210Z,24.00
2022-10-20T15:06:28.979Z,23.80
2022-10-20T15:08:57.766Z,23.20
2022-10-20T15:11:26.582Z,23.20
2022-10-20T15:13:55.075Z,23.70
2022-10-20T15:16:43.428Z,23.90
2022-10-20T15:19:31.391Z,23.00
2022-10-20T15:22:08.770Z,22.20
2022-10-20T15:24:35.486Z,21.60
2022-10-20T15:27:02.941Z,21.00
2022-10-20T15:29:30.654Z,20.50
2022-10-20T15:31:57.288Z,20.30
2022-10-20T15:34:24.142Z,20.30
2022-10-20T15:36:51.192Z,19.90
2022-10-20T15:39:18.081Z,19.80
2022-10-20T15:41:44.846Z,19.70
2022-10-20T15:44:23.993Z,19.60
2022-10-20T15:46:53.412Z,19.40
2022-10-20T15:49:20.529Z,19.00
2022-10-20T15:51:47.844Z,18.70
2022-10-20T15:54:16.935Z,18.70
2022-10-20T15:56:44.132Z,18.90
2022-10-20T15:59:10.956Z,19.00
2022-10-20T16:01:37.966Z,19.00
2022-10-20T16:04:26.176Z,19.60
2022-10-20T16:06:57.699Z,20.00
2022-10-20T16:09:24.556Z,20.00
2022-10-20T16:11:51.431Z,19.70
2022-10-20T16:14:17.978Z,19.60
2022-10-20T16:16:47.227Z,19.60
2022-10-20T16:19:13.862Z,19.50
2022-10-20T16:21:41.234Z,18.70
2022-10-20T16:24:07.866Z,18.30
2022-10-20T16:26:34.510Z,18.00
2022-10-20T16:29:01.065Z,17.70
2022-10-20T16:31:28.625Z,17.50
2022-10-20T16:33:55.172Z,17.20
2022-10-20T16:36:21.760Z,16.90
2022-10-20T16:38:48.578Z,16.80
2022-10-20T16:41:15.791Z,16.50
2022-10-20T16:43:45.206Z,16.40
2022-10-20T16:46:14.273Z,16.30
2022-10-20T16:48:42.753Z,16.20
2022-10-20T16:51:12.842Z,16.00
2022-10-20T16:53:39.428Z,15.90
2022-10-20T16:56:07.130Z,15.90
2022-10-20T16:58:33.719Z,15.80
2022-10-20T17:01:12.783Z,15.70
2022-10-20T17:03:44.913Z,15.50
2022-10-20T17:06:13.234Z,15.40
2022-10-20T17:08:40.518Z,15.50
2022-10-20T17:11:09.305Z,15.40
2022-10-20T17:13:37.078Z,15.40
2022-10-20T17:16:11.254Z,15.40
2022-10-20T17:18:37.901Z,15.40
2022-10-20T17:21:05.517Z,15.40
2022-10-20T17:23:37.313Z,15.30
2022-10-20T17:26:08.078Z,15.40
2022-10-20T17:28:36.380Z,15.30
2022-10-20T17:31:05.668Z,15.40
2022-10-20T17:33:33.071Z,15.30
2022-10-20T17:36:01.051Z,15.30
2022-10-20T17:38:29.410Z,15.30
2022-10-20T17:40:56.307Z,15.30
2022-10-20T17:43:23.674Z,15.30
2022-10-20T17:46:01.333Z,15.40
2022-10-20T17:48:28.311Z,15.30
2022-10-20T17:51:02.659Z,15.30
2022-10-20T17:53:31.734Z,15.40
2022-10-20T17:56:03.141Z,15.40
2022-10-20T17:58:29.784Z,15.50
2022-10-20T18:01:12.440Z,15.50
2022-10-20T18:03:40.098Z,15.50
2022-10-20T18:06:18.835Z,15.40
2022-10-20T18:08:46.202Z,15.40
2022-10-20T18:11:15.236Z,15.50
2022-10-20T18:13:41.843Z,15.50
2022-10-20T18:16:10.341Z,15.50
2022-10-20T18:18:37.735Z,15.50
2022-10-20T18:21:05.383Z,15.40
2022-10-20T18:23:33.319Z,15.40
2022-10-20T18:26:12.131Z,15.50
2022-10-20T18:28:40.269Z,15.50
2022-10-20T18:31:11.748Z,15.50
2022-10-20T18:33:38.295Z,15.50
2022-10-20T18:36:10.015Z,15.60
2022-10-20T18:38:38.496Z,15.50
2022-10-20T18:41:10.863Z,15.50
2022-10-20T18:43:38.169Z,15.40
2022-10-20T18:46:06.678Z,15.50
2022-10-20T18:48:36.684Z,15.40
2022-10-20T18:51:04.371Z,15.30
2022-10-20T18:53:32.139Z,15.30
2022-10-20T18:56:04.285Z,15.20
2022-10-20T18:58:32.900Z,15.20
2022-10-20T19:01:02.490Z,15.20
2022-10-20T19:03:31.471Z,15.20
2022-10-20T19:05:59.781Z,15.20
2022-10-20T19:08:26.588Z,15.10
2022-10-20T19:10:53.336Z,15.00
2022-10-20T19:13:20.019Z,14.90
2022-10-20T19:15:46.920Z,14.80
2022-10-20T19:18:13.450Z,14.80
2022-10-20T19:20:39.982Z,14.60
2022-10-20T19:23:06.538Z,14.60
2022-10-20T19:25:33.402Z,14.70
2022-10-20T19:28:00.003Z,14.60
2022-10-20T19:30:26.556Z,14.50
2022-10-20T19:32:54.806Z,14.50
2022-10-20T19:35:21.887Z,14.40
2022-10-20T19:37:48.448Z,14.50
2022-10-20T19:40:15.127Z,14.30
2022-10-20T19:42:41.806Z,14.40
2022-10-20T19:45:08.524Z,14.40
2022-10-20T19:47:35.046Z,14.50
2022-10-20T19:50:01.731Z,14.50
2022-10-20T19:52:28.315Z,14.50
2022-10-20T19:54:54.846Z,14.60
2022-10-20T19:57:21.428Z,14.60
2022-10-20T19:59:48.102Z,14.60
2022-10-20T20:02:14.637Z,14.60
2022-10-20T20:04:41.282Z,14.50
2022-10-20T20:07:07.877Z,14.40
2022-10-20T20:09:34.469Z,14.40
2022-10-20T20:12:01.241Z,14.30
2022-10-20T20:14:28.075Z,14.30
2022-10-20T20:16:54.827Z,14.30
2022-10-20T20:19:21.378Z,14.30
2022-10-20T20:21:47.958Z,14.20
2022-10-20T20:24:14.660Z,14.30
2022-10-20T20:26:41.334Z,14.20
2022-10-20T20:29:07.955Z,14.20
2022-10-20T20:31:34.541Z,14.30
2022-10-20T20:34:01.250Z,14.30
2022-10-20T20:36:28.265Z,14.20
2022-10-20T20:38:59.992Z,14.10
2022-10-20T20:41:29.954Z,14.00
2022-10-20T20:43:56.596Z,14.10
2022-10-20T20:46:24.691Z,14.10
2022-10-20T20:48:51.358Z,14.00
2022-10-20T20:51:18.802Z,14.00
2022-10-20T20:53:45.393Z,14.00
2022-10-20T20:56:14.730Z,14.10
2022-10-20T20:58:42.233Z,14.20
2022-10-20T21:01:13.052Z,14.30
2022-10-20T21:03:40.370Z,14.30
2022-10-20T21:06:17.538Z,14.40
2022-10-20T21:08:48.557Z,14.40
2022-10-20T21:11:20.587Z,14.30
2022-10-20T21:13:48.781Z,14.30
2022-10-20T21:16:19.488Z,14.20
2022-10-20T21:18:48.099Z,14.30
2022-10-20T21:21:20.351Z,14.40
2022-10-20T21:23:47.048Z,14.40
2022-10-20T21:26:15.419Z,14.40
2022-10-20T21:28:42.966Z,14.40
2022-10-20T21:31:12.297Z,14.50
2022-10-20T21:33:39.369Z,14.50
2022-10-20T21:36:08.869Z,14.50
2022-10-20T21:38:36.679Z,14.50
2022-10-20T21:41:15.009Z,14.50
2022-10-20T21:43:44.706Z,14.50
2022-10-20T21:46:15.575Z,14.60
2022-10-20T21:48:43.559Z,14.70
2022-10-20T21:51:12.930Z,14.80
2022-10-20T21:53:39.593Z,15.00
2022-10-20T21:56:07.276Z,15.00
2022-10-20T21:58:35.108Z,15.00
2022-10-20T22:01:15.688Z,15.00
2022-10-20T22:03:43.466Z,15.00
2022-10-20T22:06:11.794Z,15.00
2022-10-20T22:08:40.272Z,14.80
2022-10-20T22:11:10.654Z,14.60
2022-10-20T22:13:37.913Z,14.70
2022-10-20T22:16:09.756Z,14.60
2022-10-20T22:18:36.285Z,14.60
2022-10-20T22:21:11.181Z,14.60
2022-10-20T22:23:41.371Z,14.70
2022-10-20T22:26:08.660Z,14.70
2022-10-20T22:28:35.502Z,14.60
2022-10-20T22:33:29.107Z,14.50
2022-10-20T22:35:55.796Z,14.40
2022-10-20T22:38:22.341Z,14.30
2022-10-20T22:40:48.879Z,14.30
2022-10-20T22:43:15.458Z,14.30
2022-10-20T22:45:42.016Z,14.30
2022-10-20T22:48:08.570Z,14.30
2022-10-20T22:50:35.144Z,14.30
2022-10-20T22:53:01.697Z,14.30
2022-10-20T22:55:28.265Z,14.30
2022-10-20T22:57:54.871Z,14.20
2022-10-20T23:00:21.530Z,14.30
2022-10-20T23:02:48.190Z,14.50
2022-10-20T23:05:14.830Z,14.50
2022-10-20T23:07:41.556Z,14.50
2022-10-20T23:10:08.502Z,14.40
2022-10-20T23:12:35.441Z,14.40
2022-10-20T23:15:02.339Z,14.40
2022-10-20T23:17:29.038Z,14.40
2022-10-20T23:19:55.610Z,14.50
2022-10-20T23:22:22.203Z,14.50
2022-10-20T23:24:48.786Z,14.40
2022-10-20T23:27:15.393Z,14.40
2022-10-20T23:29:41.957Z,14.30
2022-10-20T23:32:08.500Z,14.30
2022-10-20T23:37:06.489Z,14.40
2022-10-20T23:39:33.038Z,14.50
2022-10-20T23:42:03.434Z,14.60
2022-10-20T23:44:33.651Z,14.50
2022-10-20T23:47:00.186Z,14.60
2022-10-20T23:49:26.737Z,14.50
2022-10-20T23:51:53.307Z,14.50
2022-10-20T23:54:19.929Z,14.40
2022-10-20T23:56:46.552Z,14.30
2022-10-20T23:59:13.168Z,14.30
